Time;durP1;ratioP1;P1;durP2;ratioP2;P2;SDS_P1;SDS_P2;PMS_P1;PMS_P2;Temp;Humidity;BMP_temperature;BMP_pressure;BME280_temperature;BME280_humidity;BME280_pressure;Samples;Min_cycle;Max_cycle;Signal;HPM_P1;HPM_P2
2022/12/27 00:00:48;;;;;;;26.88;3.00;;;4.30;99.90;;;;;;5077872;28;20032;-81
2022/12/27 00:03:13;;;;;;;8.77;2.35;;;4.30;99.90;;;;;;5081506;28;20032;-81
2022/12/27 00:05:43;;;;;;;12.05;2.45;;;4.30;99.90;;;;;;5067567;28;20066;-80
2022/12/27 00:08:09;;;;;;;9.40;2.90;;;4.30;99.90;;;;;;5068418;28;20099;-80
2022/12/27 00:10:35;;;;;;;15.45;2.90;;;4.30;99.90;;;;;;5071872;28;20103;-81
2022/12/27 00:13:00;;;;;;;11.05;2.50;;;4.30;99.90;;;;;;5071097;28;20060;-82
2022/12/27 00:15:26;;;;;;;9.07;2.42;;;4.30;99.90;;;;;;5074359;28;20024;-81
2022/12/27 00:17:52;;;;;;;7.03;2.95;;;4.30;99.90;;;;;;5066192;28;20437;-81
2022/12/27 00:20:17;;;;;;;14.20;2.58;;;4.30;99.90;;;;;;5061043;28;20048;-81
2022/12/27 00:22:43;;;;;;;14.88;2.70;;;4.20;99.90;;;;;;5074348;28;20073;-82
2022/12/27 00:25:09;;;;;;;12.30;3.22;;;4.20;99.90;;;;;;5073193;28;20415;-80
2022/12/27 00:27:35;;;;;;;10.07;2.42;;;4.20;99.90;;;;;;5067293;28;20020;-81
2022/12/27 00:30:01;;;;;;;5.93;2.38;;;4.20;99.90;;;;;;5063083;28;20027;-81
2022/12/27 00:32:26;;;;;;;15.55;2.83;;;4.20;99.90;;;;;;5069136;28;20025;-79
2022/12/27 00:34:52;;;;;;;12.20;2.63;;;4.20;99.90;;;;;;5073084;28;20028;-82
2022/12/27 00:37:17;;;;;;;14.80;2.60;;;4.20;99.90;;;;;;5081939;28;21728;-80
2022/12/27 00:39:43;;;;;;;16.92;3.13;;;4.20;99.90;;;;;;5070210;28;20067;-83
2022/12/27 00:42:08;;;;;;;23.55;3.08;;;4.10;99.90;;;;;;5074895;28;20024;-79
2022/12/27 00:44:36;;;;;;;14.25;2.50;;;4.10;99.90;;;;;;5071934;28;20501;-82
2022/12/27 00:47:02;;;;;;;9.30;2.65;;;4.20;99.90;;;;;;5064549;28;20025;-81
2022/12/27 00:49:27;;;;;;;27.85;3.33;;;4.20;99.90;;;;;;5068403;28;20531;-82
2022/12/27 00:51:53;;;;;;;19.63;3.53;;;4.20;99.90;;;;;;5062989;28;20397;-81
2022/12/27 00:54:18;;;;;;;17.27;3.17;;;4.20;99.90;;;;;;5069470;28;20030;-83
2022/12/27 00:56:44;;;;;;;14.68;3.55;;;4.20;99.90;;;;;;5073771;28;20531;-81
2022/12/27 00:59:11;;;;;;;11.55;2.55;;;4.20;99.90;;;;;;5073992;28;20446;-79
2022/12/27 01:01:38;;;;;;;20.60;2.55;;;4.30;99.90;;;;;;5051506;28;20016;-85
2022/12/27 01:04:06;;;;;;;19.85;3.28;;;4.30;99.90;;;;;;5072507;28;20028;-81
2022/12/27 01:06:33;;;;;;;16.73;3.22;;;4.30;99.90;;;;;;5063510;28;20035;-82
2022/12/27 01:09:00;;;;;;;15.35;3.47;;;4.30;99.90;;;;;;5071511;28;20016;-81
2022/12/27 01:11:27;;;;;;;14.07;3.28;;;4.30;99.90;;;;;;5062984;28;20103;-80
2022/12/27 01:14:04;;;;;;;25.02;4.25;;;4.30;99.90;;;;;;5071199;28;20517;-82
2022/12/27 01:16:30;;;;;;;20.13;3.40;;;4.30;99.90;;;;;;5068191;28;20024;-80
2022/12/27 01:18:56;;;;;;;13.32;3.63;;;4.30;99.90;;;;;;5067550;28;20051;-81
2022/12/27 01:21:24;;;;;;;17.13;3.90;;;4.30;99.90;;;;;;5069251;28;20461;-82
2022/12/27 01:23:50;;;;;;;18.05;3.45;;;4.30;99.90;;;;;;5063326;28;20770;-81
2022/12/27 01:26:19;;;;;;;16.98;3.63;;;4.20;99.90;;;;;;5068052;28;20027;-82
2022/12/27 01:28:45;;;;;;;13.55;2.90;;;4.30;99.90;;;;;;5064288;28;20020;-82
2022/12/27 01:31:13;;;;;;;16.67;4.22;;;4.30;99.90;;;;;;5078612;28;20035;-80
2022/12/27 01:33:39;;;;;;;16.98;3.08;;;4.30;99.90;;;;;;5076317;28;20024;-82
2022/12/27 01:36:19;;;;;;;23.52;3.38;;;4.20;99.90;;;;;;5078024;28;20085;-82
2022/12/27 01:38:48;;;;;;;12.02;3.50;;;4.30;99.90;;;;;;5067492;28;20584;-81
2022/12/27 01:44:00;;;;;;;12.63;3.30;;;4.20;99.90;;;;;;5060928;28;20051;-81
2022/12/27 01:46:27;;;;;;;14.32;2.92;;;4.20;99.90;;;;;;5073736;28;20042;-81
2022/12/27 01:48:53;;;;;;;21.85;3.67;;;4.20;99.90;;;;;;5057464;28;20086;-81
2022/12/27 01:51:19;;;;;;;11.35;2.90;;;4.20;99.90;;;;;;5060616;28;20021;-83
2022/12/27 01:53:50;;;;;;;18.00;2.80;;;4.10;99.90;;;;;;5063606;28;20351;-82
2022/12/27 01:56:29;;;;;;;11.57;2.55;;;4.10;99.90;;;;;;5071281;28;20441;-83
2022/12/27 01:58:59;;;;;;;16.10;3.03;;;4.10;99.90;;;;;;5067556;28;20043;-81
2022/12/27 02:01:45;;;;;;;10.35;2.92;;;4.10;99.90;;;;;;5066845;28;20441;-80
2022/12/27 02:04:22;;;;;;;24.80;3.33;;;4.10;99.90;;;;;;5074986;28;20055;-81
2022/12/27 02:06:49;;;;;;;8.35;2.83;;;4.10;99.90;;;;;;5071831;28;20032;-83
2022/12/27 02:09:35;;;;;;;15.65;4.15;;;4.00;99.90;;;;;;5074175;28;20020;-82
2022/12/27 02:12:04;;;;;;;24.42;3.85;;;4.00;99.90;;;;;;5061649;28;20031;-81
2022/12/27 02:14:38;;;;;;;25.50;2.85;;;4.00;99.90;;;;;;5069055;28;20504;-82
2022/12/27 02:17:10;;;;;;;17.80;3.15;;;4.00;99.90;;;;;;5080181;28;20028;-82
2022/12/27 02:19:39;;;;;;;19.77;3.15;;;4.00;99.90;;;;;;5058455;28;20029;-81
2022/12/27 02:25:38;;;;;;;22.50;4.55;;;3.90;99.90;;;;;;5069038;28;20066;-80
2022/12/27 02:28:33;;;;;;;15.20;3.28;;;3.90;99.90;;;;;;5074708;28;20021;-83
2022/12/27 02:31:12;;;;;;;13.68;2.92;;;3.90;99.90;;;;;;5068490;28;20225;-82
2022/12/27 02:33:45;;;;;;;17.48;2.95;;;3.90;99.90;;;;;;5071347;28;20483;-81
2022/12/27 02:36:26;;;;;;;19.83;2.75;;;3.80;99.90;;;;;;5070943;28;20027;-81
2022/12/27 02:38:56;;;;;;;13.63;2.63;;;3.90;99.90;;;;;;5069985;28;20439;-82
2022/12/27 02:53:11;;;;;;;14.43;2.95;;;3.90;99.90;;;;;;5078087;28;20478;-81
2022/12/27 02:59:31;;;;;;;15.20;2.95;;;3.90;99.90;;;;;;5033473;28;20085;-82
2022/12/27 03:15:53;;;;;;;16.42;2.67;;;3.90;99.90;;;;;;5058756;28;20051;-82
2022/12/27 03:17:59;;;;;;;13.77;2.78;;;3.80;99.90;;;;;;5071234;28;20078;-83
2022/12/27 03:25:58;;;;;;;14.82;3.45;;;3.80;99.90;;;;;;5065883;28;20039;-81
2022/12/27 03:34:31;;;;;;;8.30;2.60;;;3.80;99.90;;;;;;5064795;28;20035;-82
2022/12/27 03:40:23;;;;;;;9.73;2.40;;;3.70;99.90;;;;;;5070416;28;20047;-82
2022/12/27 03:43:10;;;;;;;14.45;2.70;;;3.70;99.90;;;;;;5064403;28;20025;-83
2022/12/27 03:48:59;;;;;;;6.65;2.78;;;3.70;99.90;;;;;;5067673;28;20026;-81
2022/12/27 03:51:26;;;;;;;18.20;3.33;;;3.70;99.90;;;;;;5069866;28;20024;-82
2022/12/27 03:53:59;;;;;;;9.57;2.78;;;3.70;99.90;;;;;;5076636;28;20059;-82
2022/12/27 03:56:25;;;;;;;11.02;2.35;;;3.70;99.90;;;;;;5065596;28;20033;-81
2022/12/27 03:58:52;;;;;;;13.63;3.03;;;3.70;99.90;;;;;;5080753;28;20054;-84
2022/12/27 04:01:17;;;;;;;20.08;2.78;;;3.80;99.90;;;;;;5074621;28;20027;-82
2022/12/27 04:03:43;;;;;;;13.77;3.20;;;3.70;99.90;;;;;;5078758;28;20040;-82
2022/12/27 04:06:09;;;;;;;15.77;3.92;;;3.70;99.90;;;;;;5075126;28;20024;-83
2022/12/27 04:35:55;;;;;;;17.83;3.78;;;3.70;99.90;;;;;;5066332;28;20118;-80
2022/12/27 04:38:20;;;;;;;12.00;3.45;;;3.70;99.90;;;;;;5063850;28;20079;-82
2022/12/27 04:54:56;;;;;;;17.80;3.05;;;3.70;99.90;;;;;;5065656;28;20039;-82
2022/12/27 04:57:22;;;;;;;19.25;3.80;;;3.70;99.90;;;;;;5071263;28;20063;-81
2022/12/27 05:02:32;;;;;;;18.30;3.40;;;3.70;99.90;;;;;;5064889;28;20039;-82
2022/12/27 05:04:58;;;;;;;17.25;3.97;;;3.70;99.90;;;;;;5065140;28;20457;-81
2022/12/27 05:15:36;;;;;;;10.30;2.63;;;3.70;99.90;;;;;;5070406;28;21480;-81
2022/12/27 05:18:02;;;;;;;22.02;4.20;;;3.70;99.90;;;;;;5069241;28;20368;-80
2022/12/27 05:20:27;;;;;;;16.23;3.15;;;3.70;99.90;;;;;;5074962;28;20595;-81
2022/12/27 05:25:42;;;;;;;16.45;3.58;;;3.70;99.90;;;;;;5067253;28;20135;-82
2022/12/27 05:28:10;;;;;;;16.95;4.15;;;3.70;99.90;;;;;;5071902;28;20026;-81
2022/12/27 05:30:39;;;;;;;14.48;3.63;;;3.80;99.90;;;;;;5068483;28;20085;-82
2022/12/27 05:33:04;;;;;;;13.30;3.97;;;3.80;99.90;;;;;;5067623;28;20036;-82
2022/12/27 05:35:30;;;;;;;12.23;3.55;;;3.80;99.90;;;;;;5078606;28;20119;-81
2022/12/27 05:37:56;;;;;;;7.38;3.40;;;3.80;99.90;;;;;;5065386;28;20032;-79
2022/12/27 05:40:23;;;;;;;22.42;5.05;;;3.80;99.90;;;;;;5064851;28;20036;-84
2022/12/27 05:42:49;;;;;;;12.57;3.45;;;3.80;99.90;;;;;;5065121;28;20487;-82
2022/12/27 05:45:15;;;;;;;18.45;3.70;;;3.80;99.90;;;;;;5063573;28;20047;-80
2022/12/27 05:47:41;;;;;;;9.00;2.80;;;3.80;99.90;;;;;;5066488;28;20044;-81
2022/12/27 05:50:07;;;;;;;21.35;3.42;;;3.80;99.90;;;;;;5069768;28;20380;-81
2022/12/27 05:52:33;;;;;;;17.95;4.43;;;3.80;99.90;;;;;;5061087;28;20610;-80
2022/12/27 05:54:58;;;;;;;15.30;2.97;;;3.80;99.90;;;;;;5061257;28;20028;-80
2022/12/27 05:57:24;;;;;;;24.05;3.85;;;3.80;99.90;;;;;;5062844;28;20147;-80
2022/12/27 05:59:50;;;;;;;15.27;4.53;;;3.80;99.90;;;;;;5064309;28;20107;-82
2022/12/27 06:02:16;;;;;;;20.70;5.35;;;3.80;99.90;;;;;;5068695;28;20529;-80
2022/12/27 06:04:41;;;;;;;14.90;4.97;;;3.80;99.90;;;;;;5061502;28;20040;-81
2022/12/27 06:07:10;;;;;;;11.32;4.43;;;3.80;99.90;;;;;;5067619;28;20020;-81
2022/12/27 06:09:35;;;;;;;14.77;4.70;;;3.80;99.90;;;;;;5064745;28;20025;-83
2022/12/27 06:12:11;;;;;;;13.63;3.45;;;3.80;99.90;;;;;;5068767;28;20355;-81
2022/12/27 06:14:36;;;;;;;26.48;6.35;;;3.80;99.90;;;;;;5054117;28;20103;-80
2022/12/27 06:17:02;;;;;;;12.57;4.00;;;3.80;99.90;;;;;;5076507;28;20529;-80
2022/12/27 06:19:27;;;;;;;15.73;3.88;;;3.80;99.90;;;;;;5078390;28;20357;-80
2022/12/27 06:21:53;;;;;;;14.77;4.22;;;3.80;99.90;;;;;;5071891;28;20027;-80
2022/12/27 06:24:18;;;;;;;15.32;3.42;;;3.90;99.90;;;;;;5069341;28;20048;-80
2022/12/27 06:26:44;;;;;;;9.80;3.60;;;3.80;99.90;;;;;;5066077;28;20028;-80
2022/12/27 06:29:11;;;;;;;13.05;3.92;;;3.90;99.90;;;;;;5047221;28;20056;-81
2022/12/27 06:31:37;;;;;;;12.18;3.55;;;3.90;99.90;;;;;;5078686;28;20667;-80
2022/12/27 06:34:03;;;;;;;10.50;3.05;;;3.90;99.90;;;;;;5047831;28;20098;-83
2022/12/27 06:36:31;;;;;;;17.45;3.55;;;3.90;99.90;;;;;;5070890;28;20029;-80
2022/12/27 06:38:57;;;;;;;17.52;3.95;;;3.90;99.90;;;;;;5063770;28;20110;-80
2022/12/27 06:41:23;;;;;;;18.48;3.75;;;3.90;99.90;;;;;;5076237;28;20031;-81
2022/12/27 06:43:54;;;;;;;13.63;3.80;;;4.00;99.90;;;;;;5073136;28;20036;-81
2022/12/27 06:46:19;;;;;;;9.90;2.78;;;4.00;99.90;;;;;;5067004;28;20108;-81
2022/12/27 06:48:46;;;;;;;18.05;3.38;;;4.00;99.90;;;;;;5069450;28;20076;-80
2022/12/27 06:51:14;;;;;;;12.85;3.08;;;4.00;99.90;;;;;;5068732;28;20047;-83
2022/12/27 06:53:43;;;;;;;9.52;3.20;;;4.10;99.90;;;;;;5072996;28;20039;-80
2022/12/27 06:56:11;;;;;;;8.40;3.20;;;4.10;99.90;;;;;;5072656;28;20407;-80
2022/12/27 06:58:37;;;;;;;7.32;3.17;;;4.10;99.90;;;;;;5064857;28;20097;-80
2022/12/27 07:01:15;;;;;;;13.98;3.20;;;4.10;99.90;;;;;;5071516;28;20024;-81
2022/12/27 07:03:41;;;;;;;13.15;3.17;;;4.10;99.90;;;;;;5066971;28;20044;-82
2022/12/27 07:06:12;;;;;;;12.38;3.88;;;4.10;99.90;;;;;;5070962;28;20086;-82
2022/12/27 07:08:38;;;;;;;10.85;3.00;;;4.10;99.90;;;;;;5078871;28;20017;-82
2022/12/27 07:11:06;;;;;;;8.80;2.83;;;4.10;99.90;;;;;;5076051;28;20036;-81
2022/12/27 07:13:35;;;;;;;11.38;3.50;;;4.10;99.90;;;;;;5076603;28;20392;-82
2022/12/27 07:16:06;;;;;;;12.07;3.50;;;4.10;99.90;;;;;;5064698;28;20096;-81
2022/12/27 07:18:32;;;;;;;8.98;3.88;;;4.10;99.90;;;;;;5084380;28;20368;-80
2022/12/27 07:20:58;;;;;;;8.70;2.67;;;4.10;99.90;;;;;;5075719;28;20024;-81
2022/12/27 07:23:23;;;;;;;12.38;3.40;;;4.10;99.90;;;;;;5075687;28;20464;-81
2022/12/27 07:25:49;;;;;;;12.15;3.38;;;4.10;99.90;;;;;;5067362;28;20024;-82
2022/12/27 07:28:14;;;;;;;16.63;2.88;;;4.10;99.90;;;;;;5075489;28;20028;-82
2022/12/27 07:30:41;;;;;;;16.17;3.95;;;4.10;99.90;;;;;;5068426;28;20365;-81
2022/12/27 07:33:07;;;;;;;10.57;3.13;;;4.10;99.90;;;;;;5083194;28;20056;-82
2022/12/27 07:35:33;;;;;;;26.88;5.03;;;4.00;99.90;;;;;;5071629;28;20021;-81
2022/12/27 07:37:58;;;;;;;14.57;3.63;;;4.00;99.90;;;;;;5074106;28;20055;-83
2022/12/27 07:40:24;;;;;;;16.30;3.95;;;4.00;99.90;;;;;;5070082;28;20012;-80
2022/12/27 07:42:50;;;;;;;12.63;3.30;;;4.00;99.90;;;;;;5050875;28;20036;-83
2022/12/27 07:45:16;;;;;;;12.23;3.45;;;3.90;99.90;;;;;;5075835;28;20040;-81
2022/12/27 07:47:41;;;;;;;7.68;2.92;;;3.80;99.90;;;;;;5063815;28;20369;-82
2022/12/27 07:50:07;;;;;;;20.92;4.22;;;3.70;99.90;;;;;;5056483;28;20028;-80
2022/12/27 07:52:33;;;;;;;10.48;3.00;;;3.70;99.90;;;;;;5077757;28;20024;-83
2022/12/27 07:54:58;;;;;;;17.58;3.88;;;3.70;99.90;;;;;;5070761;28;20373;-83
2022/12/27 07:57:24;;;;;;;10.27;3.65;;;3.80;99.90;;;;;;5064076;28;20055;-83
2022/12/27 07:59:49;;;;;;;11.95;3.72;;;3.70;99.90;;;;;;5066107;28;20536;-81
2022/12/27 08:02:15;;;;;;;13.38;4.13;;;3.70;99.90;;;;;;5065884;28;20153;-82
2022/12/27 08:04:41;;;;;;;5.82;2.92;;;3.70;99.90;;;;;;5072289;28;20130;-81
2022/12/27 08:07:15;;;;;;;14.13;4.13;;;3.70;99.90;;;;;;5070927;28;20048;-82
2022/12/27 08:09:43;;;;;;;15.55;4.28;;;3.80;99.90;;;;;;5074622;28;20439;-82
2022/12/27 08:12:09;;;;;;;11.48;4.50;;;3.70;99.90;;;;;;5077101;28;20358;-81
2022/12/27 08:14:35;;;;;;;12.35;3.70;;;3.80;99.90;;;;;;5074101;28;20031;-81
2022/12/27 08:17:10;;;;;;;13.48;3.80;;;3.80;99.90;;;;;;5069741;28;20024;-80
2022/12/27 08:19:36;;;;;;;20.55;5.88;;;3.80;99.90;;;;;;5066672;28;20033;-81
2022/12/27 08:22:04;;;;;;;21.77;6.03;;;3.90;99.90;;;;;;5060172;28;20559;-81
2022/12/27 08:24:30;;;;;;;25.02;5.63;;;3.90;99.90;;;;;;5073376;28;20104;-83
2022/12/27 08:26:56;;;;;;;15.82;5.30;;;3.90;99.90;;;;;;5088515;28;20032;-80
2022/12/27 08:29:21;;;;;;;17.27;6.07;;;3.90;99.90;;;;;;5060370;28;20473;-81
2022/12/27 08:31:47;;;;;;;24.83;7.95;;;3.90;99.90;;;;;;5067922;28;20032;-82
2022/12/27 08:34:13;;;;;;;15.00;4.68;;;3.90;99.90;;;;;;5075787;28;20607;-82
2022/12/27 08:36:38;;;;;;;16.73;5.40;;;3.80;99.90;;;;;;5073402;28;20081;-80
2022/12/27 08:39:06;;;;;;;25.38;6.18;;;3.80;99.90;;;;;;5060254;28;20471;-81
2022/12/27 08:41:32;;;;;;;20.80;5.85;;;3.80;99.90;;;;;;5072539;28;20020;-82
2022/12/27 08:43:57;;;;;;;19.40;4.97;;;3.80;99.90;;;;;;5070952;28;20040;-82
2022/12/27 08:46:23;;;;;;;29.58;7.45;;;3.80;99.90;;;;;;5064577;28;20027;-81
2022/12/27 08:48:49;;;;;;;21.23;5.63;;;3.90;99.90;;;;;;5064946;28;20028;-81
2022/12/27 08:51:18;;;;;;;26.75;5.97;;;3.80;99.90;;;;;;5063202;28;20031;-81
2022/12/27 08:53:44;;;;;;;16.27;5.13;;;3.90;99.90;;;;;;5070719;28;20056;-80
2022/12/27 08:56:09;;;;;;;12.43;4.60;;;3.90;99.90;;;;;;5073159;28;20071;-82
2022/12/27 08:58:36;;;;;;;8.95;3.28;;;3.90;99.90;;;;;;5068649;28;20044;-82
2022/12/27 09:01:07;;;;;;;13.48;3.90;;;3.80;99.90;;;;;;5085003;28;20016;-82
2022/12/27 09:03:34;;;;;;;10.70;3.75;;;3.80;99.90;;;;;;5077496;28;20032;-82
2022/12/27 09:06:11;;;;;;;12.90;3.90;;;3.70;99.90;;;;;;5072761;28;20342;-82
2022/12/27 09:08:36;;;;;;;11.05;3.53;;;3.80;99.90;;;;;;5063805;28;20040;-82
2022/12/27 09:11:12;;;;;;;7.22;3.03;;;3.70;99.90;;;;;;5065736;28;20025;-81
2022/12/27 09:13:38;;;;;;;7.45;4.22;;;3.70;99.90;;;;;;5080266;28;20032;-83
2022/12/27 09:16:09;;;;;;;10.15;3.78;;;3.70;99.90;;;;;;5075112;28;20078;-82
2022/12/27 09:18:39;;;;;;;15.23;4.30;;;3.80;99.90;;;;;;5071467;28;20458;-83
2022/12/27 09:21:06;;;;;;;8.70;3.60;;;3.70;99.90;;;;;;5042758;28;20033;-83
2022/12/27 09:23:33;;;;;;;13.38;4.10;;;3.80;99.90;;;;;;5069290;28;20123;-82
2022/12/27 09:26:02;;;;;;;11.02;3.92;;;3.80;99.90;;;;;;5069933;28;20028;-83
2022/12/27 09:28:28;;;;;;;13.18;4.30;;;3.80;99.90;;;;;;5080475;28;20024;-83
2022/12/27 09:30:53;;;;;;;15.48;4.28;;;3.80;99.90;;;;;;5074049;28;20024;-82
2022/12/27 09:33:19;;;;;;;17.10;3.97;;;3.80;99.90;;;;;;5069816;28;20044;-83
2022/12/27 09:35:44;;;;;;;10.75;3.35;;;3.80;99.90;;;;;;5071565;28;20090;-84
2022/12/27 09:38:10;;;;;;;13.27;3.75;;;3.70;99.90;;;;;;5072666;28;20064;-82
2022/12/27 09:40:36;;;;;;;10.27;3.65;;;3.80;99.90;;;;;;5073185;28;20033;-82
2022/12/27 09:43:09;;;;;;;12.02;3.65;;;3.70;99.90;;;;;;5070397;28;20074;-85
2022/12/27 09:45:42;;;;;;;9.75;3.05;;;3.80;99.90;;;;;;5067412;28;20032;-83
2022/12/27 09:48:24;;;;;;;9.32;3.33;;;3.80;99.90;;;;;;5066844;28;20072;-83
2022/12/27 09:51:02;;;;;;;9.02;3.35;;;3.80;99.90;;;;;;5064586;28;20085;-82
2022/12/27 09:53:51;;;;;;;14.10;4.03;;;3.80;99.90;;;;;;5055163;28;20435;-82
2022/12/27 09:56:26;;;;;;;9.10;3.05;;;3.90;99.90;;;;;;5065626;28;20493;-83
2022/12/27 09:58:56;;;;;;;6.67;3.50;;;4.00;99.90;;;;;;5073472;28;20049;-82
2022/12/27 10:01:30;;;;;;;7.40;3.40;;;4.00;99.90;;;;;;5073909;28;20608;-82
2022/12/27 10:03:56;;;;;;;8.13;3.08;;;4.10;99.90;;;;;;5065915;28;20037;-82
2022/12/27 10:06:42;;;;;;;4.30;2.67;;;4.10;99.90;;;;;;5066921;28;20024;-83
2022/12/27 10:09:29;;;;;;;11.13;3.10;;;4.20;99.90;;;;;;5061694;28;20564;-84
2022/12/27 10:12:18;;;;;;;4.85;3.15;;;4.20;99.90;;;;;;5072126;28;20062;-82
2022/12/27 10:14:49;;;;;;;3.95;2.60;;;4.20;99.90;;;;;;5063723;28;20032;-82
2022/12/27 10:17:31;;;;;;;4.47;2.72;;;4.20;99.90;;;;;;5067017;28;20255;-82
2022/12/27 10:19:59;;;;;;;12.60;5.72;;;4.20;99.90;;;;;;5064999;28;20330;-84
2022/12/27 10:22:54;;;;;;;7.72;3.35;;;4.30;99.90;;;;;;5070325;28;20036;-81
2022/12/27 10:25:22;;;;;;;8.48;2.92;;;4.30;99.90;;;;;;5071718;28;20423;-82
2022/12/27 10:28:00;;;;;;;5.80;2.47;;;4.30;99.90;;;;;;5062031;28;20050;-82
2022/12/27 10:30:28;;;;;;;6.20;2.67;;;4.30;99.90;;;;;;5067963;28;20113;-83
2022/12/27 10:32:54;;;;;;;8.05;3.30;;;4.20;99.90;;;;;;5068090;28;20054;-82
2022/12/27 10:35:21;;;;;;;7.00;2.85;;;4.20;99.90;;;;;;5073675;28;20048;-83
2022/12/27 10:37:47;;;;;;;8.88;2.70;;;4.20;99.90;;;;;;5067455;28;20032;-82
2022/12/27 10:40:24;;;;;;;10.90;3.03;;;4.20;99.90;;;;;;5067478;28;20032;-81
2022/12/27 10:43:23;;;;;;;6.45;2.67;;;4.10;99.90;;;;;;5068970;28;20060;-82
2022/12/27 10:45:49;;;;;;;9.18;3.03;;;4.10;99.90;;;;;;5064495;28;20079;-83
2022/12/27 10:48:21;;;;;;;13.32;3.78;;;4.10;99.90;;;;;;5069349;28;20024;-81
2022/12/27 10:50:53;;;;;;;9.18;4.03;;;4.10;99.90;;;;;;5049939;28;20363;-82
2022/12/27 10:53:33;;;;;;;8.73;3.35;;;4.10;99.90;;;;;;5074198;28;20460;-82
2022/12/27 10:56:19;;;;;;;11.45;3.67;;;4.20;99.90;;;;;;5074386;28;20126;-81
2022/12/27 10:58:47;;;;;;;7.07;3.10;;;4.30;99.90;;;;;;5073615;28;20047;-81
2022/12/27 11:01:32;;;;;;;7.60;2.95;;;4.30;99.90;;;;;;5070050;28;20501;-82
2022/12/27 11:04:15;;;;;;;3.97;2.53;;;4.50;99.90;;;;;;5070048;28;20548;-83
2022/12/27 11:06:43;;;;;;;11.30;3.03;;;4.60;99.90;;;;;;5075619;28;20526;-82
2022/12/27 11:09:28;;;;;;;9.10;2.40;;;4.60;99.90;;;;;;5077675;28;20036;-81
2022/12/27 11:12:22;;;;;;;8.38;3.03;;;4.80;99.90;;;;;;5082969;28;20036;-82
2022/12/27 11:15:05;;;;;;;15.18;3.50;;;4.80;99.90;;;;;;5082152;28;20093;-82
2022/12/27 11:17:41;;;;;;;11.77;3.15;;;4.80;99.90;;;;;;5076698;28;20032;-83
2022/12/27 11:20:37;;;;;;;6.78;3.38;;;4.90;99.90;;;;;;5075501;28;20035;-82
2022/12/27 11:23:04;;;;;;;7.88;3.45;;;4.90;99.90;;;;;;5074142;28;20100;-82
2022/12/27 11:25:32;;;;;;;8.23;2.78;;;4.90;99.90;;;;;;5076862;28;20050;-82
2022/12/27 11:28:17;;;;;;;10.68;3.28;;;4.90;99.90;;;;;;5074348;28;20029;-83
2022/12/27 11:30:54;;;;;;;7.63;3.05;;;4.90;99.90;;;;;;5074869;28;20032;-82
2022/12/27 11:33:32;;;;;;;7.28;3.03;;;5.00;99.90;;;;;;5076381;28;20388;-80
2022/12/27 11:35:59;;;;;;;8.63;3.30;;;5.00;99.90;;;;;;5070981;28;20489;-82
2022/12/27 11:38:31;;;;;;;6.45;3.20;;;5.00;99.90;;;;;;5078188;28;20020;-82
2022/12/27 11:41:15;;;;;;;8.23;2.83;;;5.00;99.90;;;;;;5070300;28;20456;-83
2022/12/27 11:43:46;;;;;;;11.05;3.17;;;5.10;99.90;;;;;;5079685;28;20169;-82
2022/12/27 11:46:46;;;;;;;7.85;3.22;;;5.10;99.90;;;;;;5082774;28;20032;-82
2022/12/27 11:49:36;;;;;;;6.85;2.95;;;5.00;99.90;;;;;;5059065;28;20051;-82
2022/12/27 11:52:02;;;;;;;12.50;4.55;;;5.00;99.90;;;;;;5063256;28;20063;-82
2022/12/27 11:54:57;;;;;;;20.85;5.07;;;5.00;99.90;;;;;;5063518;28;20117;-81
2022/12/27 11:57:41;;;;;;;20.13;5.55;;;4.90;99.90;;;;;;5063527;28;20037;-83
2022/12/27 12:00:25;;;;;;;16.10;4.57;;;4.90;99.90;;;;;;5067692;28;20032;-82
2022/12/27 12:02:51;;;;;;;16.58;4.68;;;4.90;99.90;;;;;;5072398;28;20020;-83
2022/12/27 12:05:40;;;;;;;18.38;5.43;;;4.80;99.90;;;;;;5072709;28;20062;-82
2022/12/27 12:08:36;;;;;;;36.25;8.80;;;4.80;99.90;;;;;;5068975;28;20036;-82
2022/12/27 12:11:38;;;;;;;13.87;4.40;;;4.80;99.90;;;;;;5073396;28;20012;-82
2022/12/27 12:14:22;;;;;;;15.98;4.93;;;4.70;99.90;;;;;;5067296;28;20299;-83
2022/12/27 12:17:06;;;;;;;18.70;6.22;;;4.70;99.90;;;;;;5045360;28;20028;-82
2022/12/27 12:20:06;;;;;;;8.68;3.67;;;4.70;99.90;;;;;;5064331;28;20044;-82
2022/12/27 12:22:54;;;;;;;14.77;4.05;;;4.70;99.90;;;;;;5062070;28;22616;-82
2022/12/27 12:25:35;;;;;;;11.90;4.07;;;4.70;99.90;;;;;;5062489;28;20064;-82
2022/12/27 12:28:01;;;;;;;7.35;3.45;;;4.80;99.90;;;;;;5045996;28;20378;-82
2022/12/27 12:30:41;;;;;;;6.20;3.15;;;4.80;99.90;;;;;;5063620;28;20081;-82
2022/12/27 12:33:19;;;;;;;13.32;3.72;;;4.80;99.90;;;;;;5067320;28;20163;-82
2022/12/27 12:35:56;;;;;;;7.05;2.78;;;4.80;99.90;;;;;;5069032;28;20393;-82
2022/12/27 12:38:34;;;;;;;7.68;3.15;;;4.80;99.90;;;;;;5063852;28;20516;-82
2022/12/27 12:41:19;;;;;;;11.38;3.08;;;4.80;99.90;;;;;;5051448;28;20020;-83
2022/12/27 12:44:13;;;;;;;13.85;3.95;;;4.80;99.90;;;;;;5071016;28;20054;-82
2022/12/27 12:47:00;;;;;;;8.85;3.25;;;4.80;99.90;;;;;;5052140;28;20036;-81
2022/12/27 12:49:44;;;;;;;19.75;3.38;;;4.80;99.90;;;;;;5061949;28;20281;-81
2022/12/27 12:52:32;;;;;;;19.00;3.17;;;4.80;99.90;;;;;;5055703;28;20040;-81
2022/12/27 12:55:24;;;;;;;12.85;3.97;;;4.80;99.90;;;;;;5066938;28;20035;-82
2022/12/27 12:58:34;;;;;;;10.40;2.83;;;4.80;99.90;;;;;;5062633;28;20048;-83
2022/12/27 13:01:19;;;;;;;15.35;3.95;;;4.90;99.90;;;;;;5062121;28;20412;-82
2022/12/27 13:03:51;;;;;;;17.65;4.43;;;4.80;99.90;;;;;;5066249;28;20052;-82
2022/12/27 13:06:50;;;;;;;20.85;8.63;;;4.90;99.90;;;;;;5071585;28;20133;-82
2022/12/27 13:09:29;;;;;;;11.82;3.95;;;4.90;99.90;;;;;;5064909;28;20082;-83
2022/12/27 13:12:13;;;;;;;15.10;4.15;;;4.90;99.90;;;;;;5066856;28;20024;-82
2022/12/27 13:15:20;;;;;;;12.55;5.13;;;4.90;99.90;;;;;;5067323;28;20068;-81
2022/12/27 13:18:04;;;;;;;14.35;3.63;;;5.00;99.90;;;;;;5059283;28;20030;-82
2022/12/27 13:20:52;;;;;;;12.40;2.65;;;5.00;99.90;;;;;;5063707;28;20393;-83
2022/12/27 13:23:36;;;;;;;13.82;3.45;;;5.00;99.90;;;;;;5063329;28;20477;-81
2022/12/27 13:26:18;;;;;;;8.27;3.22;;;5.00;99.90;;;;;;5067944;28;20029;-82
2022/12/27 13:29:02;;;;;;;13.50;3.08;;;5.10;99.90;;;;;;5069224;28;20044;-82
2022/12/27 13:31:46;;;;;;;15.88;2.72;;;5.10;99.90;;;;;;5067951;28;20032;-81
2022/12/27 13:34:24;;;;;;;6.80;2.65;;;5.10;99.90;;;;;;5069183;28;20557;-82
2022/12/27 13:37:23;;;;;;;10.25;2.65;;;5.10;99.90;;;;;;5064293;28;20067;-84
2022/12/27 13:40:07;;;;;;;11.98;2.45;;;5.00;99.90;;;;;;5062365;28;20040;-82
2022/12/27 13:43:20;;;;;;;13.23;2.78;;;5.00;99.90;;;;;;5064497;28;20099;-83
2022/12/27 13:46:23;;;;;;;8.65;2.50;;;4.90;99.90;;;;;;5066797;28;20127;-82
2022/12/27 13:49:30;;;;;;;8.93;2.50;;;4.90;99.90;;;;;;5067838;28;20032;-82
2022/12/27 13:52:01;;;;;;;;;;;4.90;99.90;;;;;;5029130;28;20032;-81
2022/12/27 13:54:51;;;;;;;8.63;2.47;;;5.00;99.90;;;;;;5070048;28;19989;-82
2022/12/27 13:57:35;;;;;;;6.07;2.35;;;4.90;99.90;;;;;;5066910;28;20164;-83
2022/12/27 14:00:18;;;;;;;19.98;3.63;;;4.90;99.90;;;;;;5072563;28;20021;-83
2022/12/27 14:02:56;;;;;;;12.15;2.83;;;4.90;99.90;;;;;;5074472;28;20493;-83
2022/12/27 14:05:22;;;;;;;8.90;3.00;;;4.90;99.90;;;;;;5074983;28;20036;-82
2022/12/27 14:07:51;;;;;;;13.18;3.30;;;4.80;99.90;;;;;;5064338;28;20554;-82
2022/12/27 14:10:32;;;;;;;14.05;2.95;;;4.90;99.90;;;;;;5086605;28;20032;-83
2022/12/27 14:13:06;;;;;;;12.38;3.10;;;4.90;99.90;;;;;;5065846;28;20457;-82
2022/12/27 14:15:56;;;;;;;10.43;2.95;;;5.00;99.90;;;;;;5063775;28;20478;-82
2022/12/27 14:18:26;;;;;;;5.57;2.65;;;5.00;99.90;;;;;;5058211;28;20421;-82
2022/12/27 14:21:19;;;;;;;4.95;2.55;;;5.00;99.90;;;;;;5072134;28;20115;-81
2022/12/27 14:23:53;;;;;;;3.35;2.22;;;5.00;99.90;;;;;;5067535;28;20118;-83
2022/12/27 14:26:25;;;;;;;16.52;3.47;;;4.90;99.90;;;;;;5077029;28;20039;-82
2022/12/27 14:28:53;;;;;;;3.95;2.15;;;4.90;99.90;;;;;;5064800;28;20496;-82
2022/12/27 14:31:41;;;;;;;11.13;2.40;;;4.80;99.90;;;;;;5067512;28;20060;-82
2022/12/27 14:34:06;;;;;;;13.95;3.42;;;4.70;99.90;;;;;;5074881;28;20036;-82
2022/12/27 14:37:07;;;;;;;6.82;2.75;;;4.70;99.90;;;;;;5072023;28;20081;-82
2022/12/27 14:40:04;;;;;;;17.33;2.97;;;4.70;99.90;;;;;;5067956;28;20033;-82
2022/12/27 14:43:07;;;;;;;36.78;10.30;;;4.70;99.90;;;;;;5072298;28;20024;-82
2022/12/27 14:46:16;;;;;;;99.13;26.10;;;4.60;99.90;;;;;;5069012;28;20036;-82
2022/12/27 14:49:02;;;;;;;66.63;17.13;;;4.60;99.90;;;;;;5063639;28;20043;-83
2022/12/27 14:51:56;;;;;;;22.00;4.13;;;4.60;99.90;;;;;;5062991;28;20036;-80
2022/12/27 14:54:54;;;;;;;19.55;3.58;;;4.70;99.90;;;;;;5070535;28;20024;-82
2022/12/27 14:57:19;;;;;;;9.00;3.17;;;4.70;99.90;;;;;;5073489;28;20079;-82
2022/12/27 14:59:58;;;;;;;10.23;2.90;;;4.80;99.90;;;;;;5076397;28;20192;-83
2022/12/27 15:02:33;;;;;;;14.40;4.15;;;4.80;99.90;;;;;;5071705;28;20032;-82
2022/12/27 15:05:12;;;;;;;37.42;9.48;;;4.80;99.90;;;;;;5076972;28;20110;-82
2022/12/27 15:08:02;;;;;;;23.98;7.25;;;4.80;99.90;;;;;;5069415;28;20043;-82
2022/12/27 15:10:34;;;;;;;11.80;3.22;;;4.80;99.90;;;;;;5066855;28;20040;-82